createdAt,value
2017-09-17T00:00:50.942Z,68.80
2017-09-17T00:03:18.498Z,68.70
2017-09-17T00:05:46.058Z,68.80
2017-09-17T00:08:13.596Z,68.90
2017-09-17T00:10:41.174Z,68.90
2017-09-17T00:13:08.734Z,68.80
2017-09-17T00:15:36.201Z,69.50
2017-09-17T00:18:04.457Z,68.60
2017-09-17T00:20:31.925Z,68.50
2017-09-17T00:23:00.173Z,68.90
2017-09-17T00:25:27.642Z,68.90
2017-09-17T00:27:55.163Z,69.20
2017-09-17T00:30:22.647Z,69.20
2017-09-17T00:32:50.128Z,69.50
2017-09-17T00:35:18.380Z,69.50
2017-09-17T00:37:45.851Z,69.10
2017-09-17T00:40:13.424Z,69.50
2017-09-17T00:42:41.685Z,70.20
2017-09-17T00:45:09.169Z,69.60
2017-09-17T00:47:37.407Z,69.70
2017-09-17T00:50:04.879Z,69.60
2017-09-17T00:52:32.348Z,69.60
2017-09-17T00:55:00.602Z,69.80
2017-09-17T00:57:28.190Z,69.70
2017-09-17T00:59:56.429Z,69.90
2017-09-17T01:02:23.999Z,69.80
2017-09-17T01:04:51.477Z,69.60
2017-09-17T01:07:18.950Z,69.70
2017-09-17T01:09:46.429Z,69.80
2017-09-17T01:12:13.897Z,70.00
2017-09-17T01:14:41.372Z,69.90
2017-09-17T01:17:09.006Z,69.90
2017-09-17T01:19:36.492Z,69.80
2017-09-17T01:22:04.058Z,69.80
2017-09-17T01:24:31.621Z,69.50
2017-09-17T01:26:59.089Z,69.50
2017-09-17T01:29:27.349Z,69.60
2017-09-17T01:31:54.958Z,69.50
2017-09-17T01:34:22.426Z,69.70
2017-09-17T01:36:49.923Z,70.00
2017-09-17T01:39:17.485Z,70.30
2017-09-17T01:41:45.004Z,70.10
2017-09-17T01:44:12.473Z,70.00
2017-09-17T01:46:39.940Z,69.80
2017-09-17T01:49:07.405Z,69.60
2017-09-17T01:51:35.648Z,69.80
2017-09-17T01:54:03.127Z,69.70
2017-09-17T01:56:30.613Z,69.80
2017-09-17T01:58:58.156Z,69.80
2017-09-17T02:01:25.712Z,69.70
2017-09-17T02:03:53.187Z,69.80
2017-09-17T02:06:20.694Z,69.90
2017-09-17T02:08:48.156Z,69.80
2017-09-17T02:11:15.630Z,69.80
2017-09-17T02:13:43.100Z,69.70
2017-09-17T02:16:10.580Z,69.50
2017-09-17T02:18:38.897Z,69.80
2017-09-17T02:21:06.374Z,69.70
2017-09-17T02:23:33.962Z,69.60
2017-09-17T02:26:01.427Z,69.60
2017-09-17T02:28:29.695Z,69.80
2017-09-17T02:30:57.185Z,69.70
2017-09-17T02:33:24.701Z,69.80
2017-09-17T02:35:52.173Z,70.20
2017-09-17T02:38:20.415Z,71.10
2017-09-17T02:40:47.869Z,70.20
2017-09-17T02:43:15.355Z,70.20
2017-09-17T02:45:42.906Z,70.30
2017-09-17T02:48:10.423Z,70.40
2017-09-17T02:50:37.880Z,70.30
2017-09-17T02:53:05.381Z,70.30
2017-09-17T02:55:32.842Z,70.20
2017-09-17T02:58:00.309Z,70.00
2017-09-17T03:00:28.541Z,70.30
2017-09-17T03:02:56.021Z,70.30
2017-09-17T03:05:23.472Z,70.30
2017-09-17T03:07:50.941Z,70.30
2017-09-17T03:10:18.405Z,70.20
2017-09-17T03:12:45.869Z,70.90
2017-09-17T03:15:14.093Z,70.00
2017-09-17T03:17:41.587Z,69.90
2017-09-17T03:20:09.132Z,70.10
2017-09-17T03:22:36.649Z,70.40
2017-09-17T03:25:04.873Z,70.10
2017-09-17T03:27:32.345Z,70.00
2017-09-17T03:29:59.803Z,69.90
2017-09-17T03:32:28.033Z,70.10
2017-09-17T03:34:55.521Z,70.00
2017-09-17T03:37:23.032Z,70.30
2017-09-17T03:39:50.496Z,70.30
2017-09-17T03:42:23.977Z,70.50
2017-09-17T03:44:51.544Z,70.70
2017-09-17T03:47:19.054Z,70.50
2017-09-17T03:49:47.311Z,70.00
2017-09-17T03:52:14.776Z,69.90
2017-09-17T03:54:42.240Z,69.80
2017-09-17T03:57:09.702Z,70.00
2017-09-17T03:59:39.739Z,70.10
2017-09-17T04:02:07.960Z,70.30
2017-09-17T04:04:35.430Z,70.20
2017-09-17T04:07:03.717Z,70.60
2017-09-17T04:09:31.202Z,70.80
2017-09-17T04:11:58.693Z,70.60
2017-09-17T04:14:26.237Z,70.50
2017-09-17T04:17:08.330Z,70.70
2017-09-17T04:19:35.800Z,70.80
2017-09-17T04:22:03.269Z,71.00
2017-09-17T04:24:30.733Z,70.70
2017-09-17T04:26:58.218Z,70.50
2017-09-17T04:29:25.689Z,70.40
2017-09-17T04:31:53.170Z,70.20
2017-09-17T04:34:20.630Z,70.40
2017-09-17T04:36:48.117Z,70.10
2017-09-17T04:39:15.577Z,70.10
2017-09-17T04:41:43.056Z,70.30
2017-09-17T04:44:10.533Z,70.50
2017-09-17T04:46:38.030Z,71.10
2017-09-17T04:49:05.513Z,71.20
2017-09-17T04:51:32.995Z,71.00
2017-09-17T04:54:00.479Z,70.70
2017-09-17T04:56:27.968Z,70.70
2017-09-17T04:58:55.438Z,70.80
2017-09-17T05:01:22.951Z,70.90
2017-09-17T05:03:50.426Z,70.80
2017-09-17T05:06:17.917Z,70.50
2017-09-17T05:08:45.403Z,71.00
2017-09-17T05:11:13.641Z,71.40
2017-09-17T05:13:41.127Z,71.40
2017-09-17T05:16:08.613Z,71.40
2017-09-17T05:18:36.097Z,71.30
2017-09-17T05:21:03.558Z,71.60
2017-09-17T05:23:31.029Z,71.70
2017-09-17T05:25:58.493Z,71.70
2017-09-17T05:28:26.079Z,71.60
2017-09-17T05:30:54.315Z,71.40
2017-09-17T05:33:21.785Z,71.30
2017-09-17T05:35:49.262Z,71.20
2017-09-17T05:38:16.755Z,71.30
2017-09-17T05:40:44.256Z,71.50
2017-09-17T05:43:11.819Z,71.40
2017-09-17T05:45:39.280Z,71.20
2017-09-17T05:48:06.733Z,71.00
2017-09-17T05:50:34.319Z,71.20
2017-09-17T05:53:02.545Z,71.20
2017-09-17T05:55:30.008Z,71.10
2017-09-17T05:57:57.469Z,71.20
2017-09-17T06:00:24.932Z,71.30
2017-09-17T06:02:52.415Z,71.60
2017-09-17T06:05:20.686Z,71.80
2017-09-17T06:07:48.931Z,71.80
2017-09-17T06:10:16.501Z,71.80
2017-09-17T06:12:44.016Z,71.80
2017-09-17T06:15:11.486Z,71.60
2017-09-17T06:17:38.947Z,71.90
2017-09-17T06:20:06.424Z,72.60
2017-09-17T06:22:33.929Z,72.50
2017-09-17T06:25:01.398Z,72.20
2017-09-17T06:27:28.882Z,71.50
2017-09-17T06:29:56.359Z,71.80
2017-09-17T06:32:23.816Z,71.30
2017-09-17T06:34:51.306Z,70.80
2017-09-17T06:37:18.777Z,71.80
2017-09-17T06:39:46.245Z,70.50
2017-09-17T06:42:13.728Z,70.30
2017-09-17T06:44:41.215Z,70.80
2017-09-17T06:47:09.473Z,70.30
2017-09-17T06:49:37.032Z,70.10
2017-09-17T06:52:04.527Z,70.10
2017-09-17T06:54:32.062Z,70.30
2017-09-17T06:57:00.326Z,70.50
2017-09-17T06:59:27.802Z,70.40
2017-09-17T07:01:56.114Z,70.60
2017-09-17T07:04:23.582Z,70.50
2017-09-17T07:06:51.058Z,70.60
2017-09-17T07:09:20.037Z,70.60
2017-09-17T07:11:47.512Z,70.60
2017-09-17T07:14:14.981Z,70.00
2017-09-17T07:16:42.532Z,70.40
2017-09-17T07:19:10.030Z,71.10
2017-09-17T07:21:37.924Z,70.50
2017-09-17T07:24:05.578Z,70.50
2017-09-17T07:26:33.099Z,70.50
2017-09-17T07:29:01.515Z,70.30
2017-09-17T07:31:28.994Z,70.10
2017-09-17T07:33:56.469Z,70.30
2017-09-17T07:36:23.933Z,70.80
2017-09-17T07:38:51.547Z,69.70
2017-09-17T07:41:19.023Z,69.50
2017-09-17T07:43:46.485Z,69.40
2017-09-17T07:46:14.015Z,69.50
2017-09-17T07:48:41.612Z,69.70
2017-09-17T07:51:09.882Z,69.30
2017-09-17T07:53:37.356Z,69.20
2017-09-17T07:56:04.866Z,69.20
2017-09-17T07:58:32.424Z,69.30
2017-09-17T08:00:59.983Z,68.90
2017-09-17T08:03:27.477Z,68.90
2017-09-17T08:05:55.037Z,69.20
2017-09-17T08:08:22.610Z,68.80
2017-09-17T08:10:50.423Z,68.20
2017-09-17T08:13:17.932Z,67.10
2017-09-17T08:15:45.453Z,67.00
2017-09-17T08:18:12.940Z,67.20
2017-09-17T08:20:41.912Z,66.60
2017-09-17T08:23:09.445Z,66.50
2017-09-17T08:25:36.922Z,66.60
2017-09-17T08:28:04.408Z,66.30
2017-09-17T08:30:31.909Z,66.20
2017-09-17T08:32:59.379Z,66.30
2017-09-17T08:35:26.850Z,66.00
2017-09-17T08:37:54.309Z,66.40
2017-09-17T08:40:21.778Z,65.40
2017-09-17T08:42:49.361Z,64.10
2017-09-17T08:45:17.679Z,65.40
2017-09-17T08:47:45.161Z,64.60
2017-09-17T08:50:12.732Z,64.30
2017-09-17T08:52:40.199Z,63.00
2017-09-17T08:55:07.678Z,62.00
2017-09-17T08:57:35.937Z,62.50
2017-09-17T09:00:03.491Z,62.40
2017-09-17T09:02:30.945Z,61.40
2017-09-17T09:04:59.941Z,60.60
2017-09-17T09:07:27.393Z,60.50
2017-09-17T09:09:54.882Z,60.40
2017-09-17T09:12:22.348Z,59.90
2017-09-17T09:14:49.809Z,58.30
2017-09-17T09:17:17.384Z,57.80
2017-09-17T09:19:44.852Z,57.80
2017-09-17T09:22:12.308Z,58.00
2017-09-17T09:24:39.765Z,58.60
2017-09-17T09:27:07.220Z,56.30
2017-09-17T09:29:34.707Z,55.50
2017-09-17T09:32:02.972Z,56.40
2017-09-17T09:34:30.424Z,56.30
2017-09-17T09:36:57.894Z,56.70
2017-09-17T09:39:25.441Z,56.50
2017-09-17T09:41:52.915Z,54.10
2017-09-17T09:44:20.421Z,55.40
2017-09-17T09:46:47.980Z,55.40
2017-09-17T09:49:15.456Z,55.70
2017-09-17T09:51:42.998Z,54.50
2017-09-17T09:54:10.450Z,54.40
2017-09-17T09:56:37.920Z,55.20
2017-09-17T09:59:05.372Z,55.10
2017-09-17T10:01:32.873Z,54.70
2017-09-17T10:04:01.097Z,55.80
2017-09-17T10:06:28.549Z,55.70
2017-09-17T10:08:56.075Z,55.80
2017-09-17T10:11:24.318Z,54.30
2017-09-17T10:13:51.769Z,54.20
2017-09-17T10:16:19.254Z,54.00
2017-09-17T10:18:47.495Z,55.10
2017-09-17T10:21:14.975Z,55.00
2017-09-17T10:23:42.445Z,54.70
2017-09-17T10:26:09.902Z,52.60
2017-09-17T10:28:37.498Z,51.50
2017-09-17T10:31:05.018Z,52.70
2017-09-17T10:33:32.490Z,53.50
2017-09-17T10:36:00.713Z,54.70
2017-09-17T10:38:28.202Z,54.70
2017-09-17T10:40:55.662Z,54.40
2017-09-17T10:43:23.116Z,52.60
2017-09-17T10:45:50.570Z,49.30
2017-09-17T10:48:18.045Z,48.30
2017-09-17T10:50:46.260Z,48.80
2017-09-17T10:53:13.731Z,48.80
2017-09-17T10:55:41.192Z,48.30
2017-09-17T10:58:08.678Z,47.80
2017-09-17T11:00:36.175Z,48.00
2017-09-17T11:03:04.869Z,48.60
2017-09-17T11:05:32.380Z,48.40
2017-09-17T11:07:59.925Z,48.80
2017-09-17T11:10:28.911Z,46.40
2017-09-17T11:12:56.490Z,46.40
2017-09-17T11:15:24.720Z,47.80
2017-09-17T11:17:52.177Z,47.10
2017-09-17T11:20:19.637Z,43.20
2017-09-17T11:22:47.085Z,41.60
2017-09-17T11:27:45.200Z,38.30
2017-09-17T11:30:12.668Z,39.70
2017-09-17T11:32:40.135Z,43.10
2017-09-17T11:35:08.392Z,45.80
2017-09-17T11:37:35.852Z,45.30
2017-09-17T11:40:03.383Z,44.10
2017-09-17T11:42:30.834Z,44.70
2017-09-17T11:44:58.314Z,44.30
2017-09-17T11:47:25.777Z,43.00
2017-09-17T11:49:53.241Z,39.80
2017-09-17T11:52:20.792Z,42.80
2017-09-17T11:54:48.281Z,42.30
2017-09-17T11:57:16.496Z,38.50
2017-09-17T11:59:43.957Z,38.50
2017-09-17T12:02:11.441Z,39.60
2017-09-17T12:04:38.896Z,38.60
2017-09-17T12:07:06.368Z,39.10
2017-09-17T12:09:33.909Z,38.60
2017-09-17T12:12:01.369Z,36.70
2017-09-17T12:14:28.935Z,37.50
2017-09-17T12:16:56.405Z,39.40
2017-09-17T12:19:24.628Z,38.10
2017-09-17T12:21:52.093Z,38.10
2017-09-17T12:24:19.581Z,40.00
2017-09-17T12:26:47.097Z,40.70
2017-09-17T12:29:14.564Z,40.50
2017-09-17T12:31:42.030Z,41.50
2017-09-17T12:34:09.482Z,42.00
2017-09-17T12:36:36.940Z,42.80
2017-09-17T12:39:04.395Z,42.70
2017-09-17T12:41:31.862Z,42.30
2017-09-17T12:43:59.431Z,43.40
2017-09-17T12:46:26.985Z,43.50
2017-09-17T12:48:54.447Z,43.70
2017-09-17T12:51:22.006Z,43.00
2017-09-17T12:53:49.463Z,42.60
2017-09-17T12:56:16.934Z,42.10
2017-09-17T12:58:45.212Z,42.40
2017-09-17T13:01:13.440Z,41.50
2017-09-17T13:03:40.905Z,41.40
2017-09-17T13:06:08.372Z,41.50
2017-09-17T13:08:35.932Z,42.00
2017-09-17T13:11:03.489Z,41.30
2017-09-17T13:13:30.945Z,41.40
2017-09-17T13:15:58.408Z,42.10
2017-09-17T13:18:25.860Z,41.90
2017-09-17T13:20:53.426Z,42.90
2017-09-17T13:23:20.976Z,42.30
2017-09-17T13:25:48.534Z,42.10
2017-09-17T13:28:17.589Z,42.80
2017-09-17T13:30:45.044Z,42.80
2017-09-17T13:33:12.531Z,42.40
2017-09-17T13:35:39.986Z,42.50
2017-09-17T13:38:07.458Z,42.30
2017-09-17T13:40:34.914Z,41.70
2017-09-17T13:43:02.411Z,42.60
2017-09-17T13:45:29.869Z,42.90
2017-09-17T13:47:57.328Z,43.00
2017-09-17T13:50:24.785Z,43.50
2017-09-17T13:52:52.313Z,43.00
2017-09-17T13:55:19.773Z,42.10
2017-09-17T13:57:47.997Z,40.80
2017-09-17T14:00:15.478Z,40.80
2017-09-17T14:02:55.661Z,41.20
2017-09-17T14:05:28.604Z,43.00
2017-09-17T14:07:58.959Z,42.80
2017-09-17T14:10:26.878Z,43.10
2017-09-17T14:12:54.336Z,43.10
2017-09-17T14:15:21.789Z,43.90
2017-09-17T14:17:49.266Z,45.00
2017-09-17T14:20:16.738Z,45.50
2017-09-17T14:22:44.774Z,45.50
2017-09-17T14:25:12.270Z,45.10
2017-09-17T14:27:40.588Z,45.50
2017-09-17T14:30:08.883Z,45.70
2017-09-17T14:32:36.441Z,45.70
2017-09-17T14:35:03.951Z,46.20
2017-09-17T14:37:31.413Z,46.50
2017-09-17T14:39:58.878Z,46.80
2017-09-17T14:42:27.139Z,47.20
2017-09-17T14:44:54.589Z,47.80
2017-09-17T14:47:22.156Z,47.00
2017-09-17T14:49:49.697Z,46.90
2017-09-17T14:52:17.928Z,47.80
2017-09-17T14:54:45.387Z,47.30
2017-09-17T14:57:12.894Z,47.30
2017-09-17T14:59:40.366Z,47.50
2017-09-17T15:02:08.596Z,47.60
2017-09-17T15:04:36.092Z,47.50
2017-09-17T15:07:03.640Z,47.20
2017-09-17T15:09:31.867Z,47.50
2017-09-17T15:11:59.369Z,47.50
2017-09-17T15:14:26.834Z,47.70
2017-09-17T15:16:55.101Z,48.30
2017-09-17T15:19:22.673Z,48.30
2017-09-17T15:21:50.137Z,49.00
2017-09-17T15:24:18.399Z,50.70
2017-09-17T15:26:45.958Z,50.60
2017-09-17T15:29:13.423Z,51.60
2017-09-17T15:31:41.676Z,54.30
2017-09-17T15:34:09.245Z,54.30
2017-09-17T15:36:37.467Z,54.80
2017-09-17T15:39:04.944Z,54.80
2017-09-17T15:41:32.427Z,54.50
2017-09-17T15:43:59.884Z,53.10
2017-09-17T15:46:27.371Z,52.50
2017-09-17T15:48:55.600Z,53.60
2017-09-17T15:51:23.060Z,53.60
2017-09-17T15:53:50.521Z,53.60
2017-09-17T15:56:17.975Z,52.50
2017-09-17T15:58:45.433Z,52.50
2017-09-17T16:01:12.888Z,51.70
2017-09-17T16:03:40.350Z,51.80
2017-09-17T16:06:07.808Z,50.10
2017-09-17T16:08:35.369Z,48.90
2017-09-17T16:11:03.642Z,44.40
2017-09-17T16:13:31.209Z,44.40
2017-09-17T16:15:58.771Z,46.00
2017-09-17T16:18:26.333Z,45.30
2017-09-17T16:20:54.586Z,43.30
2017-09-17T16:23:22.044Z,43.10
2017-09-17T16:25:49.506Z,43.30
2017-09-17T16:28:17.084Z,43.10
2017-09-17T16:30:44.642Z,43.30
2017-09-17T16:33:12.865Z,44.40
2017-09-17T16:35:40.319Z,44.30
2017-09-17T16:38:07.806Z,45.10
2017-09-17T16:40:35.762Z,47.10
2017-09-17T16:43:03.361Z,48.50
2017-09-17T16:45:30.965Z,50.10
2017-09-17T16:47:58.545Z,51.50
2017-09-17T16:50:26.309Z,51.90
2017-09-17T16:52:53.908Z,51.80
2017-09-17T16:55:21.371Z,53.10
2017-09-17T16:57:49.741Z,54.80
2017-09-17T17:00:17.346Z,54.80
2017-09-17T17:02:45.566Z,55.70
2017-09-17T17:05:13.173Z,56.80
2017-09-17T17:07:40.628Z,57.10
2017-09-17T17:10:08.240Z,57.50
2017-09-17T17:12:35.845Z,57.70
2017-09-17T17:15:03.411Z,58.50
2017-09-17T17:17:30.896Z,58.80
2017-09-17T17:19:58.369Z,59.20
2017-09-17T17:22:27.358Z,60.00
2017-09-17T17:24:55.651Z,60.20
2017-09-17T17:27:23.234Z,60.10
2017-09-17T17:29:51.052Z,61.10
2017-09-17T17:32:18.501Z,61.30
2017-09-17T17:34:45.972Z,61.80
2017-09-17T17:37:13.668Z,61.80
2017-09-17T17:39:42.049Z,63.10
2017-09-17T17:42:09.641Z,63.10
2017-09-17T17:44:37.161Z,63.00
2017-09-17T17:47:05.585Z,63.60
2017-09-17T17:49:33.051Z,63.50
2017-09-17T17:52:00.531Z,64.00
2017-09-17T17:54:28.087Z,64.50
2017-09-17T17:56:55.552Z,64.20
2017-09-17T17:59:23.010Z,64.40
2017-09-17T18:01:51.554Z,65.10
2017-09-17T18:04:19.089Z,65.10
2017-09-17T18:06:46.553Z,65.30
2017-09-17T18:09:14.012Z,65.60
2017-09-17T18:11:41.500Z,64.90
2017-09-17T18:14:09.657Z,65.80
2017-09-17T18:16:38.065Z,66.20
2017-09-17T18:19:05.622Z,66.10
2017-09-17T18:21:33.517Z,66.70
2017-09-17T18:24:01.159Z,66.20
2017-09-17T18:26:29.429Z,67.30
2017-09-17T18:28:56.885Z,67.30
2017-09-17T18:31:25.153Z,66.40
2017-09-17T18:33:52.719Z,66.90
2017-09-17T18:36:20.192Z,67.30
2017-09-17T18:38:48.427Z,67.10
2017-09-17T18:41:15.901Z,67.20
2017-09-17T18:43:43.378Z,67.50
2017-09-17T18:46:11.639Z,67.60
2017-09-17T18:48:39.113Z,68.30
2017-09-17T18:51:12.958Z,67.50
2017-09-17T18:53:40.419Z,67.50
2017-09-17T18:56:07.926Z,67.60
2017-09-17T18:58:36.181Z,67.70
2017-09-17T19:01:03.663Z,67.70
2017-09-17T19:03:31.963Z,67.60
2017-09-17T19:05:59.479Z,67.40
2017-09-17T19:08:26.979Z,67.90
2017-09-17T19:10:54.444Z,67.90
2017-09-17T19:13:21.915Z,68.10
2017-09-17T19:15:49.505Z,68.30
2017-09-17T19:18:16.977Z,68.10
2017-09-17T19:20:45.232Z,68.40
2017-09-17T19:23:12.748Z,68.30
2017-09-17T19:25:40.201Z,68.10
2017-09-17T19:28:07.743Z,68.20
2017-09-17T19:30:35.208Z,68.20
2017-09-17T19:33:02.732Z,68.20
2017-09-17T19:35:30.251Z,68.20
2017-09-17T19:37:57.719Z,68.70
2017-09-17T19:40:25.192Z,68.10
2017-09-17T19:42:52.762Z,68.20
2017-09-17T19:45:20.309Z,68.30
2017-09-17T19:47:47.794Z,68.60
2017-09-17T19:50:16.035Z,68.40
2017-09-17T19:52:43.500Z,68.40
2017-09-17T19:55:10.968Z,68.60
2017-09-17T19:57:39.225Z,68.50
2017-09-17T20:00:07.165Z,68.40
2017-09-17T20:02:34.660Z,68.50
2017-09-17T20:05:02.134Z,68.60
2017-09-17T20:07:30.371Z,69.20
2017-09-17T20:09:57.832Z,69.10
2017-09-17T20:12:25.305Z,69.80
2017-09-17T20:14:52.927Z,70.20
2017-09-17T20:17:20.416Z,68.50
2017-09-17T20:19:47.991Z,68.60
2017-09-17T20:22:15.522Z,67.80
2017-09-17T20:24:42.980Z,67.70
2017-09-17T20:27:10.454Z,68.10
2017-09-17T20:29:38.028Z,68.10
2017-09-17T20:32:06.289Z,68.50
2017-09-17T20:34:33.770Z,69.30
2017-09-17T20:37:02.021Z,68.40
2017-09-17T20:39:29.488Z,68.30
2017-09-17T20:41:57.808Z,68.00
2017-09-17T20:44:25.283Z,67.90
2017-09-17T20:46:52.768Z,68.00
2017-09-17T20:49:20.246Z,67.80
2017-09-17T20:51:47.837Z,67.50
2017-09-17T20:54:15.565Z,67.50
2017-09-17T20:56:43.821Z,67.10
2017-09-17T20:59:11.297Z,67.10
2017-09-17T21:01:39.554Z,67.00
2017-09-17T21:04:07.033Z,66.90
2017-09-17T21:06:35.297Z,66.90
2017-09-17T21:09:03.533Z,67.70
2017-09-17T21:11:31.002Z,66.80
2017-09-17T21:13:58.479Z,67.20
2017-09-17T21:16:26.026Z,66.80
2017-09-17T21:18:53.503Z,67.10
2017-09-17T21:21:21.824Z,66.90
2017-09-17T21:23:49.306Z,66.90
2017-09-17T21:26:16.778Z,66.60
2017-09-17T21:28:44.264Z,66.70
2017-09-17T21:31:12.509Z,66.30
2017-09-17T21:33:39.988Z,66.30
2017-09-17T21:36:08.232Z,66.20
2017-09-17T21:38:35.713Z,66.20
2017-09-17T21:41:03.981Z,66.20
2017-09-17T21:43:31.444Z,66.90
2017-09-17T21:45:59.701Z,66.30
2017-09-17T21:48:27.264Z,66.20
2017-09-17T21:50:54.780Z,66.20
2017-09-17T21:53:22.283Z,66.10
2017-09-17T21:55:49.736Z,65.90
2017-09-17T21:58:17.294Z,66.00
2017-09-17T22:00:44.762Z,66.00
2017-09-17T22:03:12.318Z,66.10
2017-09-17T22:05:39.776Z,66.20
2017-09-17T22:08:08.001Z,65.90
2017-09-17T22:10:35.621Z,65.90
2017-09-17T22:13:03.858Z,65.80
2017-09-17T22:15:31.339Z,66.60
2017-09-17T22:17:58.796Z,65.80
2017-09-17T22:20:26.266Z,65.80
2017-09-17T22:22:54.530Z,67.00
2017-09-17T22:25:22.002Z,66.20
2017-09-17T22:27:50.244Z,66.00
2017-09-17T22:30:17.717Z,65.80
2017-09-17T22:32:45.174Z,66.10
2017-09-17T22:35:12.638Z,66.30
2017-09-17T22:37:40.878Z,66.20
2017-09-17T22:40:08.340Z,66.10
2017-09-17T22:42:35.904Z,66.30
2017-09-17T22:45:03.366Z,66.60
2017-09-17T22:47:30.830Z,66.50
2017-09-17T22:49:59.977Z,66.50
2017-09-17T22:52:28.409Z,66.40
2017-09-17T22:54:55.870Z,66.20
2017-09-17T22:57:24.111Z,67.40
2017-09-17T22:59:51.585Z,66.60
2017-09-17T23:02:19.064Z,66.60
2017-09-17T23:04:47.297Z,66.40
2017-09-17T23:07:14.768Z,66.20
2017-09-17T23:09:42.229Z,66.30
2017-09-17T23:12:09.689Z,66.40
2017-09-17T23:14:37.141Z,66.30
2017-09-17T23:17:04.608Z,66.00
2017-09-17T23:19:32.072Z,65.70
2017-09-17T23:21:59.536Z,66.10
2017-09-17T23:24:27.770Z,66.40
2017-09-17T23:26:55.246Z,66.20
2017-09-17T23:29:22.705Z,66.70
2017-09-17T23:31:50.259Z,66.70
2017-09-17T23:34:17.722Z,66.70
2017-09-17T23:36:45.268Z,66.80
2017-09-17T23:39:12.729Z,66.60
2017-09-17T23:41:40.206Z,66.60
2017-09-17T23:44:08.450Z,66.20
2017-09-17T23:46:35.917Z,66.20
2017-09-17T23:49:03.377Z,66.50
2017-09-17T23:51:30.941Z,67.70
2017-09-17T23:53:58.398Z,68.00
2017-09-17T23:56:25.908Z,68.20
2017-09-17T23:58:53.399Z,68.70
